Terminal Aerodrome Forecast
Issued by NWS Cleveland, OH

Home | Current Version | Previous Version | Text Only | Print | Product List | Glossary Off
Versions: 1 2 3 4 5 6 7 8 9 10 11 12 13 14 15 16 17 18 19 20 21

905
FTUS41 KCLE 231139
TAFERI
TAF
KERI 231139Z 2312/2412 21005KT P6SM SCT150
     FM231500 30005KT P6SM BKN100 OVC250
     FM231900 02010KT P6SM SCT050 OVC100
     FM232300 04010KT P6SM BKN025 OVC050
     FM240100 04010KT P6SM BKN015
     FM240900 04007KT P6SM SCT015=

USA.gov is the U.S. government's official web portal to all federal, state and local government web resources and services.